Terminal Aerodrome Forecast
Issued by NWS

Home | Current Version | Previous Version | Text Only | Print | Product List | Glossary On
Versions: 1 2 3 4 5 6 7 8 9 10 11 12 13 14 15 16 17 18
551
FTUS46 KMTR 251140
TAFSTS
TAF
KSTS 251140Z 2512/2612 29004KT P6SM FEW026
      TEMPO 2512/2516 1SM BR SCT002 BKN006
     FM251600 30004KT P6SM FEW010 SCT030
     FM252100 25008KT P6SM SCT050
     FM260400 23004KT P6SM BKN100=

USA.gov is the U.S. government's official web portal to all federal, state and local government web resources and services.